createdAt,value
2024-01-11T00:01:15.306Z,-2.94
2024-01-11T00:03:42.315Z,-2.95
2024-01-11T00:06:10.005Z,-2.95
2024-01-11T00:08:37.309Z,-2.98
2024-01-11T00:11:05.039Z,-3.01
2024-01-11T00:13:32.045Z,-3.00
2024-01-11T00:15:59.337Z,-3.02
2024-01-11T00:18:26.544Z,-3.04
2024-01-11T00:20:54.082Z,-3.05
2024-01-11T00:23:21.186Z,-3.06
2024-01-11T00:25:48.535Z,-3.10
2024-01-11T00:28:15.549Z,-3.13
2024-01-11T00:30:42.834Z,-3.18
2024-01-11T00:33:10.661Z,-3.21
2024-01-11T00:35:38.173Z,-3.22
2024-01-11T00:38:05.354Z,-3.24
2024-01-11T00:40:32.600Z,-3.26
2024-01-11T00:42:59.647Z,-3.28
2024-01-11T00:45:26.974Z,-3.28
2024-01-11T00:47:54.649Z,-3.30
2024-01-11T00:50:22.693Z,-3.31
2024-01-11T00:52:49.779Z,-3.32
2024-01-11T00:55:17.514Z,-3.34
2024-01-11T00:57:44.462Z,-3.38
2024-01-11T01:00:16.019Z,-3.40
2024-01-11T01:02:43.646Z,-3.44
2024-01-11T01:05:11.340Z,-3.46
2024-01-11T01:07:39.890Z,-3.48
2024-01-11T01:10:53.034Z,-3.50
2024-01-11T01:13:20.228Z,-3.53
2024-01-11T01:15:47.674Z,-3.59
2024-01-11T01:18:14.774Z,-3.61
2024-01-11T01:20:42.295Z,-3.65
2024-01-11T01:23:09.376Z,-3.63
2024-01-11T01:25:36.818Z,-3.61
2024-01-11T01:28:04.260Z,-3.61
2024-01-11T01:30:31.699Z,-3.62
2024-01-11T01:32:58.783Z,-3.63
2024-01-11T01:35:26.162Z,-3.66
2024-01-11T01:37:53.168Z,-3.65
2024-01-11T01:40:20.521Z,-3.68
2024-01-11T01:42:47.690Z,-3.74
2024-01-11T01:45:16.963Z,-3.77
2024-01-11T01:47:45.792Z,-3.83
2024-01-11T01:50:14.481Z,-3.86
2024-01-11T01:52:44.937Z,-3.88
2024-01-11T01:55:16.105Z,-3.91
2024-01-11T01:57:46.016Z,-4.05
2024-01-11T02:00:14.734Z,-4.05
2024-01-11T02:02:48.450Z,-4.04
2024-01-11T02:05:19.091Z,-4.00
2024-01-11T02:07:46.533Z,-4.01
2024-01-11T02:10:13.910Z,-4.05
2024-01-11T02:12:42.735Z,-4.28
2024-01-11T02:15:10.438Z,-4.35
2024-01-11T02:17:37.869Z,-4.32
2024-01-11T02:20:06.162Z,-4.30
2024-01-11T02:22:41.668Z,-4.41
2024-01-11T02:25:09.518Z,-4.39
2024-01-11T02:27:47.984Z,-4.39
2024-01-11T02:30:16.447Z,-4.31
2024-01-11T02:32:49.933Z,-4.26
2024-01-11T02:35:18.122Z,-4.23
2024-01-11T02:37:47.714Z,-4.25
2024-01-11T02:40:16.369Z,-4.24
2024-01-11T02:42:43.543Z,-4.22
2024-01-11T02:45:15.903Z,-4.25
2024-01-11T02:47:43.196Z,-4.31
2024-01-11T02:50:13.076Z,-4.35
2024-01-11T02:52:40.367Z,-4.37
2024-01-11T02:55:08.042Z,-4.47
2024-01-11T02:57:34.986Z,-4.52
2024-01-11T03:00:02.327Z,-4.58
2024-01-11T03:02:29.570Z,-4.55
2024-01-11T03:04:56.975Z,-4.54
2024-01-11T03:07:24.005Z,-4.54
2024-01-11T03:09:51.303Z,-4.60
2024-01-11T03:12:18.302Z,-4.69
2024-01-11T03:14:45.541Z,-4.60
2024-01-11T03:17:12.592Z,-4.58
2024-01-11T03:19:43.301Z,-4.58
2024-01-11T03:22:13.303Z,-4.56
2024-01-11T03:24:40.832Z,-4.56
2024-01-11T03:27:07.994Z,-4.51
2024-01-11T03:29:35.404Z,-4.48
2024-01-11T03:32:02.620Z,-4.46
2024-01-11T03:34:29.927Z,-4.45
2024-01-11T03:36:57.031Z,-4.44
2024-01-11T03:39:26.661Z,-4.43
2024-01-11T03:41:53.900Z,-4.42
2024-01-11T03:44:21.224Z,-4.46
2024-01-11T03:46:48.299Z,-4.45
2024-01-11T03:49:15.644Z,-4.47
2024-01-11T03:51:42.653Z,-4.46
2024-01-11T03:54:10.060Z,-4.47
2024-01-11T03:56:40.754Z,-4.50
2024-01-11T03:59:08.325Z,-4.50
2024-01-11T04:01:42.136Z,-4.55
2024-01-11T04:04:09.878Z,-4.65
2024-01-11T04:06:37.024Z,-4.70
2024-01-11T04:09:04.405Z,-4.70
2024-01-11T04:11:31.936Z,-4.77
2024-01-11T04:13:59.326Z,-4.82
2024-01-11T04:16:26.396Z,-4.88
2024-01-11T04:18:53.813Z,-4.88
2024-01-11T04:21:23.580Z,-4.89
2024-01-11T04:23:52.073Z,-4.91
2024-01-11T04:26:19.207Z,-4.88
2024-01-11T04:28:47.684Z,-4.85
2024-01-11T04:31:18.310Z,-4.77
2024-01-11T04:33:47.331Z,-4.73
2024-01-11T04:36:15.036Z,-4.71
2024-01-11T04:38:42.415Z,-4.69
2024-01-11T04:41:14.474Z,-4.66
2024-01-11T04:43:43.945Z,-4.68
2024-01-11T04:46:22.443Z,-4.65
2024-01-11T04:48:51.510Z,-4.64
2024-01-11T04:51:19.612Z,-4.72
2024-01-11T04:53:48.198Z,-4.86
2024-01-11T04:56:17.266Z,-4.91
2024-01-11T04:58:47.085Z,-4.95
2024-01-11T05:01:16.957Z,-4.96
2024-01-11T05:03:47.516Z,-4.96
2024-01-11T05:06:23.340Z,-5.08
2024-01-11T05:08:53.956Z,-5.11
2024-01-11T05:11:25.942Z,-5.02
2024-01-11T05:13:54.079Z,-4.97
2024-01-11T05:16:31.061Z,-4.90
2024-01-11T05:18:59.818Z,-4.93
2024-01-11T05:21:27.520Z,-4.91
2024-01-11T05:23:55.101Z,-4.89
2024-01-11T05:26:22.649Z,-4.89
2024-01-11T05:28:50.055Z,-4.90
2024-01-11T05:31:17.742Z,-5.02
2024-01-11T05:33:47.114Z,-5.01
2024-01-11T05:36:14.401Z,-4.99
2024-01-11T05:38:42.086Z,-4.99
2024-01-11T05:41:09.935Z,-4.98
2024-01-11T05:43:40.455Z,-5.00
2024-01-11T05:46:08.483Z,-5.02
2024-01-11T05:48:36.554Z,-4.98
2024-01-11T05:51:03.793Z,-4.99
2024-01-11T05:53:31.102Z,-5.04
2024-01-11T05:55:58.269Z,-5.02
2024-01-11T05:58:25.590Z,-5.01
2024-01-11T06:00:52.696Z,-5.04
2024-01-11T06:03:20.090Z,-5.08
2024-01-11T06:05:47.595Z,-5.05
2024-01-11T06:08:14.960Z,-5.05
2024-01-11T06:10:42.754Z,-5.12
2024-01-11T06:13:10.876Z,-5.19
2024-01-11T06:15:37.965Z,-5.23
2024-01-11T06:18:06.302Z,-5.16
2024-01-11T06:20:33.666Z,-5.18
2024-01-11T06:23:01.199Z,-5.14
2024-01-11T06:25:28.895Z,-5.13
2024-01-11T06:27:56.716Z,-5.11
2024-01-11T06:30:23.704Z,-5.08
2024-01-11T06:32:51.210Z,-5.16
2024-01-11T06:35:18.517Z,-5.20
2024-01-11T06:37:45.832Z,-5.20
2024-01-11T06:40:12.855Z,-5.23
2024-01-11T06:42:40.123Z,-5.28
2024-01-11T06:45:07.944Z,-5.23
2024-01-11T06:47:35.500Z,-5.20
2024-01-11T06:50:04.087Z,-5.16
2024-01-11T06:52:31.427Z,-5.17
2024-01-11T06:54:58.646Z,-5.21
2024-01-11T06:57:25.950Z,-5.22
2024-01-11T06:59:53.152Z,-5.27
2024-01-11T07:02:20.531Z,-5.38
2024-01-11T07:04:47.493Z,-5.40
2024-01-11T07:07:14.933Z,-5.48
2024-01-11T07:09:41.873Z,-5.45
2024-01-11T07:12:10.094Z,-5.44
2024-01-11T07:14:37.629Z,-5.39
2024-01-11T07:17:05.593Z,-5.39
2024-01-11T07:19:33.922Z,-5.40
2024-01-11T07:22:02.856Z,-5.38
2024-01-11T07:24:38.466Z,-5.35
2024-01-11T07:27:07.490Z,-5.35
2024-01-11T07:29:35.725Z,-5.38
2024-01-11T07:32:05.408Z,-5.38
2024-01-11T07:34:34.085Z,-5.44
2024-01-11T07:37:01.616Z,-5.50
2024-01-11T07:39:28.834Z,-5.48
2024-01-11T07:41:56.199Z,-5.39
2024-01-11T07:44:23.345Z,-5.38
2024-01-11T07:46:54.325Z,-5.35
2024-01-11T07:49:23.046Z,-5.34
2024-01-11T07:51:50.566Z,-5.31
2024-01-11T07:54:17.821Z,-5.33
2024-01-11T07:56:45.224Z,-5.33
2024-01-11T07:59:16.226Z,-5.28
2024-01-11T08:01:44.039Z,-5.24
2024-01-11T08:04:11.233Z,-5.24
2024-01-11T08:06:39.033Z,-5.21
2024-01-11T08:09:06.801Z,-5.17
2024-01-11T08:11:36.675Z,-5.15
2024-01-11T08:14:07.245Z,-5.18
2024-01-11T08:16:34.930Z,-5.17
2024-01-11T08:19:02.518Z,-5.14
2024-01-11T08:21:30.386Z,-5.09
2024-01-11T08:24:01.565Z,-4.99
2024-01-11T08:26:33.290Z,-4.93
2024-01-11T08:29:00.515Z,-4.93
2024-01-11T08:31:28.995Z,-4.86
2024-01-11T08:33:56.310Z,-4.74
2024-01-11T08:36:23.634Z,-4.62
2024-01-11T08:38:51.050Z,-4.54
2024-01-11T08:41:18.576Z,-4.55
2024-01-11T08:43:45.569Z,-4.55
2024-01-11T08:46:12.798Z,-4.50
2024-01-11T08:48:39.846Z,-4.43
2024-01-11T08:51:07.656Z,-4.33
2024-01-11T08:53:34.810Z,-4.28
2024-01-11T08:56:02.403Z,-4.20
2024-01-11T08:58:29.615Z,-4.15
2024-01-11T09:00:57.039Z,-4.12
2024-01-11T09:03:24.129Z,-4.15
2024-01-11T09:05:51.946Z,-4.05
2024-01-11T09:08:19.318Z,-3.98
2024-01-11T09:10:47.437Z,-3.94
2024-01-11T09:13:15.198Z,-3.89
2024-01-11T09:15:43.571Z,-3.82
2024-01-11T09:18:11.058Z,-3.77
2024-01-11T09:20:38.677Z,-3.67
2024-01-11T09:23:07.280Z,-3.56
2024-01-11T09:25:37.095Z,-3.49
2024-01-11T09:28:04.894Z,-3.37
2024-01-11T09:30:32.296Z,-3.25
2024-01-11T09:32:59.404Z,-3.13
2024-01-11T09:35:26.827Z,-3.06
2024-01-11T09:37:53.953Z,-3.01
2024-01-11T09:40:21.669Z,-2.98
2024-01-11T09:42:49.841Z,-3.01
2024-01-11T09:45:18.551Z,-2.97
2024-01-11T09:47:47.372Z,-2.92
2024-01-11T09:50:19.333Z,-2.94
2024-01-11T09:52:51.634Z,-3.00
2024-01-11T09:55:19.889Z,-3.01
2024-01-11T09:58:00.875Z,-2.95
2024-01-11T10:00:29.827Z,-2.86
2024-01-11T10:02:56.967Z,-2.75
2024-01-11T10:05:24.593Z,-2.66
2024-01-11T10:07:51.695Z,-2.59
2024-01-11T10:10:19.044Z,-2.52
2024-01-11T10:12:46.336Z,-2.51
2024-01-11T10:15:15.021Z,-2.49
2024-01-11T10:17:47.006Z,-2.46
2024-01-11T10:20:15.727Z,-2.39
2024-01-11T10:22:44.107Z,-2.30
2024-01-11T10:25:45.576Z,-2.26
2024-01-11T10:28:15.631Z,-2.23
2024-01-11T10:30:47.403Z,-2.17
2024-01-11T10:33:14.571Z,-2.06
2024-01-11T10:35:42.572Z,-1.98
2024-01-11T10:38:11.773Z,-1.95
2024-01-11T10:40:39.140Z,-1.90
2024-01-11T10:43:12.673Z,-1.87
2024-01-11T10:45:40.555Z,-1.84
2024-01-11T10:48:18.177Z,-1.82
2024-01-11T10:50:47.633Z,-1.77
2024-01-11T10:53:35.568Z,-1.75
2024-01-11T10:56:08.433Z,-1.76
2024-01-11T10:58:36.814Z,-1.72
2024-01-11T11:01:05.758Z,-1.70
2024-01-11T11:03:35.613Z,-1.60
2024-01-11T11:06:05.340Z,-1.50
2024-01-11T11:08:33.319Z,-1.38
2024-01-11T11:11:05.530Z,-1.24
2024-01-11T11:13:52.650Z,-1.10
2024-01-11T11:16:21.091Z,-1.00
2024-01-11T11:18:48.452Z,-0.95
2024-01-11T11:21:16.503Z,-0.90
2024-01-11T11:24:00.836Z,-0.85
2024-01-11T11:26:50.736Z,-0.85
2024-01-11T11:29:19.175Z,-0.84
2024-01-11T11:31:49.025Z,-0.84
2024-01-11T11:34:17.658Z,-0.81
2024-01-11T11:36:47.957Z,-0.77
2024-01-11T11:39:15.511Z,-0.70
2024-01-11T11:41:44.026Z,-0.69
2024-01-11T11:44:17.008Z,-0.62
2024-01-11T11:46:46.459Z,-0.60
2024-01-11T11:49:14.859Z,-0.58
2024-01-11T11:51:45.096Z,-0.62
2024-01-11T11:54:34.268Z,-0.64
2024-01-11T11:57:01.825Z,-0.62
2024-01-11T11:59:30.022Z,-0.61
2024-01-11T12:02:00.593Z,-0.62
2024-01-11T12:04:27.986Z,-0.59
2024-01-11T12:06:55.746Z,-0.58
2024-01-11T12:09:24.467Z,-0.58
2024-01-11T12:12:02.141Z,-0.59
2024-01-11T12:14:35.311Z,-0.54
2024-01-11T12:17:05.294Z,-0.51
2024-01-11T12:19:32.406Z,-0.46
2024-01-11T12:22:01.283Z,-0.42
2024-01-11T12:24:28.802Z,-0.38
2024-01-11T12:26:57.170Z,-0.34
2024-01-11T12:29:24.715Z,-0.31
2024-01-11T12:31:53.437Z,-0.30
2024-01-11T12:34:22.312Z,-0.25
2024-01-11T12:36:49.816Z,-0.20
2024-01-11T12:39:18.280Z,-0.14
2024-01-11T12:41:45.825Z,-0.04
2024-01-11T12:44:13.010Z,0.04
2024-01-11T12:46:56.528Z,0.08
2024-01-11T12:49:24.129Z,0.15
2024-01-11T12:51:51.612Z,0.19
2024-01-11T12:54:20.649Z,0.25
2024-01-11T12:56:48.122Z,0.31
2024-01-11T12:59:17.608Z,0.36
2024-01-11T13:01:45.097Z,0.43
2024-01-11T13:04:13.113Z,0.48
2024-01-11T13:06:40.980Z,0.55
2024-01-11T13:09:09.368Z,0.61
2024-01-11T13:11:36.876Z,0.65
2024-01-11T13:14:07.937Z,0.68
2024-01-11T13:16:35.463Z,0.72
2024-01-11T13:19:08.066Z,0.74
2024-01-11T13:21:40.832Z,0.77
2024-01-11T13:24:11.157Z,0.81
2024-01-11T13:26:38.640Z,0.86
2024-01-11T13:29:09.156Z,0.91
2024-01-11T13:31:36.419Z,0.98
2024-01-11T13:34:04.781Z,1.03
2024-01-11T13:36:32.343Z,1.08
2024-01-11T13:38:59.294Z,1.14
2024-01-11T13:41:26.772Z,1.19
2024-01-11T13:43:55.596Z,1.24
2024-01-11T13:46:23.079Z,1.28
2024-01-11T13:48:50.136Z,1.35
2024-01-11T13:51:17.603Z,1.39
2024-01-11T13:53:44.757Z,1.39
2024-01-11T13:56:12.296Z,1.40
2024-01-11T13:58:39.439Z,1.40
2024-01-11T14:01:06.841Z,1.42
2024-01-11T14:03:33.922Z,1.44
2024-01-11T14:06:01.770Z,1.47
2024-01-11T14:08:29.095Z,1.48
2024-01-11T14:10:56.522Z,1.48
2024-01-11T14:13:23.533Z,1.51
2024-01-11T14:15:52.257Z,1.49
2024-01-11T14:18:20.394Z,1.48
2024-01-11T14:20:48.245Z,1.48
2024-01-11T14:23:15.373Z,1.46
2024-01-11T14:25:42.874Z,1.45
2024-01-11T14:28:09.925Z,1.43
2024-01-11T14:30:37.332Z,1.42
2024-01-11T14:33:05.146Z,1.42
2024-01-11T14:35:32.662Z,1.43
2024-01-11T14:37:59.770Z,1.41
2024-01-11T14:40:28.502Z,1.41
2024-01-11T14:42:56.794Z,1.38
2024-01-11T14:45:24.077Z,1.34
2024-01-11T14:47:51.148Z,1.32
2024-01-11T14:50:18.628Z,1.27
2024-01-11T14:52:45.712Z,1.24
2024-01-11T14:55:12.939Z,1.20
2024-01-11T14:58:25.605Z,1.19
2024-01-11T15:01:02.374Z,1.16
2024-01-11T15:03:29.380Z,1.13
2024-01-11T15:05:57.105Z,1.12
2024-01-11T15:08:24.211Z,1.11
2024-01-11T15:10:51.551Z,1.09
2024-01-11T15:13:18.538Z,1.09
2024-01-11T15:15:46.071Z,1.08
2024-01-11T15:18:13.465Z,1.09
2024-01-11T15:20:42.581Z,1.10
2024-01-11T15:23:09.774Z,1.12
2024-01-11T15:25:45.597Z,1.13
2024-01-11T15:28:27.637Z,1.18
2024-01-11T15:30:55.053Z,1.19
2024-01-11T15:33:22.235Z,1.21
2024-01-11T15:35:49.697Z,1.23
2024-01-11T15:38:34.992Z,1.24
2024-01-11T15:41:24.616Z,1.27
2024-01-11T15:43:51.856Z,1.32
2024-01-11T15:46:19.186Z,1.34
2024-01-11T15:49:28.193Z,1.35
2024-01-11T15:51:55.535Z,1.36
2024-01-11T15:54:22.710Z,1.37
2024-01-11T15:56:50.377Z,1.37
2024-01-11T15:59:23.924Z,1.39
2024-01-11T16:02:00.724Z,1.39
2024-01-11T16:04:33.565Z,1.39
2024-01-11T16:07:01.056Z,1.37
2024-01-11T16:09:28.261Z,1.33
2024-01-11T16:12:02.344Z,1.30
2024-01-11T16:14:32.268Z,1.27
2024-01-11T16:16:59.771Z,1.27
2024-01-11T16:19:26.909Z,1.26
2024-01-11T16:21:54.273Z,1.24
2024-01-11T16:24:21.239Z,1.22
2024-01-11T16:26:55.369Z,1.21
2024-01-11T16:29:22.541Z,1.20
2024-01-11T16:31:51.549Z,1.19
2024-01-11T16:34:18.556Z,1.17
2024-01-11T16:36:46.176Z,1.17
2024-01-11T16:39:13.237Z,1.17
2024-01-11T16:41:42.294Z,1.15
2024-01-11T16:44:10.273Z,1.14
2024-01-11T16:46:37.739Z,1.16
2024-01-11T16:49:05.241Z,1.16
2024-01-11T16:51:33.235Z,1.17
2024-01-11T16:54:00.376Z,1.17
2024-01-11T16:56:28.001Z,1.19
2024-01-11T16:59:25.515Z,1.21
2024-01-11T17:01:52.949Z,1.23
2024-01-11T17:04:19.989Z,1.24
2024-01-11T17:06:47.439Z,1.25
2024-01-11T17:09:14.447Z,1.26
2024-01-11T17:11:42.029Z,1.25
2024-01-11T17:14:09.638Z,1.24
2024-01-11T17:16:37.391Z,1.21
2024-01-11T17:19:04.555Z,1.21
2024-01-11T17:21:32.405Z,1.20
2024-01-11T17:23:59.518Z,1.17
2024-01-11T17:26:26.929Z,1.15
2024-01-11T17:29:06.145Z,1.15
2024-01-11T17:31:33.751Z,1.12
2024-01-11T17:34:01.038Z,1.11
2024-01-11T17:36:28.855Z,1.12
2024-01-11T17:39:49.945Z,1.10
2024-01-11T17:42:18.629Z,1.06
2024-01-11T17:44:46.263Z,1.05
2024-01-11T17:47:13.832Z,1.04
2024-01-11T17:49:42.930Z,1.03
2024-01-11T17:52:10.638Z,1.00
2024-01-11T17:54:40.861Z,0.99
2024-01-11T17:57:10.789Z,0.97
2024-01-11T17:59:37.826Z,0.96
2024-01-11T18:02:05.278Z,0.95
2024-01-11T18:04:32.431Z,0.93
2024-01-11T18:06:59.752Z,0.93
2024-01-11T18:09:26.983Z,0.93
2024-01-11T18:11:54.278Z,0.91
2024-01-11T18:14:21.540Z,0.91
2024-01-11T18:16:48.921Z,0.89
2024-01-11T18:19:16.000Z,0.90
2024-01-11T18:21:43.794Z,0.89
2024-01-11T18:24:10.940Z,0.87
2024-01-11T18:26:38.216Z,0.84
2024-01-11T18:29:05.420Z,0.83
2024-01-11T18:31:32.721Z,0.81
2024-01-11T18:33:59.798Z,0.80
2024-01-11T18:36:27.033Z,0.77
2024-01-11T18:38:57.524Z,0.74
2024-01-11T18:41:25.140Z,0.73
2024-01-11T18:43:52.188Z,0.68
2024-01-11T18:46:21.751Z,0.68
2024-01-11T18:48:49.105Z,0.65
2024-01-11T18:51:16.542Z,0.62
2024-01-11T18:54:02.739Z,0.60
2024-01-11T18:56:30.619Z,0.56
2024-01-11T19:02:25.205Z,0.52
2024-01-11T19:04:52.579Z,0.46
2024-01-11T19:07:20.525Z,0.40
2024-01-11T19:09:48.216Z,0.38
2024-01-11T19:12:15.624Z,0.33
2024-01-11T19:14:59.295Z,0.24
2024-01-11T19:17:27.555Z,0.24
2024-01-11T19:19:56.538Z,0.18
2024-01-11T19:22:24.194Z,0.17
2024-01-11T19:24:51.220Z,0.13
2024-01-11T19:27:19.105Z,0.02
2024-01-11T19:29:46.541Z,-0.04
2024-01-11T19:32:14.209Z,-0.12
2024-01-11T19:34:41.218Z,-0.16
2024-01-11T19:37:08.827Z,-0.22
2024-01-11T19:39:36.051Z,-0.24
2024-01-11T19:42:04.219Z,-0.34
2024-01-11T19:44:32.089Z,-0.36
2024-01-11T19:46:59.498Z,-0.40
2024-01-11T19:49:35.722Z,-0.44
2024-01-11T19:52:03.291Z,-0.48
2024-01-11T19:54:30.685Z,-0.61
2024-01-11T19:57:46.047Z,-0.69
2024-01-11T20:00:19.843Z,-0.74
2024-01-11T20:02:47.000Z,-0.78
2024-01-11T20:05:14.644Z,-0.80
2024-01-11T20:08:03.395Z,-0.84
2024-01-11T20:10:35.612Z,-0.86
2024-01-11T20:13:02.913Z,-0.90
2024-01-11T20:15:30.917Z,-0.93
2024-01-11T20:17:58.299Z,-0.93
2024-01-11T20:20:25.606Z,-0.96
2024-01-11T20:22:52.616Z,-0.96
2024-01-11T20:25:20.448Z,-0.96
2024-01-11T20:27:47.614Z,-1.09
2024-01-11T20:30:15.104Z,-1.03
2024-01-11T20:32:42.283Z,-1.07
2024-01-11T20:35:10.029Z,-1.09
2024-01-11T20:37:45.196Z,-1.10
2024-01-11T20:40:12.743Z,-1.14
2024-01-11T20:42:57.485Z,-1.17
2024-01-11T20:45:40.423Z,-1.19
2024-01-11T20:48:21.142Z,-1.18
2024-01-11T20:50:49.382Z,-1.17
2024-01-11T20:53:16.911Z,-1.19
2024-01-11T20:55:44.684Z,-1.25
2024-01-11T20:58:11.766Z,-1.20
2024-01-11T21:00:39.964Z,-1.19
2024-01-11T21:03:07.430Z,-1.16
2024-01-11T21:05:35.832Z,-1.16
2024-01-11T21:08:04.627Z,-1.13
2024-01-11T21:10:32.476Z,-1.06
2024-01-11T21:12:59.539Z,-1.04
2024-01-11T21:15:26.878Z,-0.99
2024-01-11T21:17:54.478Z,-0.97
2024-01-11T21:20:21.991Z,-0.90
2024-01-11T21:22:49.028Z,-0.88
2024-01-11T21:25:16.628Z,-0.87
2024-01-11T21:27:43.611Z,-0.85
2024-01-11T21:30:12.468Z,-0.82
2024-01-11T21:32:39.681Z,-0.89
2024-01-11T21:35:09.024Z,-0.86
2024-01-11T21:37:36.200Z,-0.83
2024-01-11T21:40:05.256Z,-0.79
2024-01-11T21:42:33.318Z,-0.78
2024-01-11T21:45:26.757Z,-0.82
2024-01-11T21:47:53.881Z,-0.83
2024-01-11T21:50:21.616Z,-0.81
2024-01-11T21:52:49.235Z,-0.79
2024-01-11T21:55:16.788Z,-0.78
2024-01-11T21:57:44.524Z,-0.77
2024-01-11T22:00:13.599Z,-0.78
2024-01-11T22:02:49.078Z,-0.77
2024-01-11T22:05:38.239Z,-0.72
2024-01-11T22:08:13.796Z,-0.68
2024-01-11T22:10:45.298Z,-0.66
2024-01-11T22:13:12.571Z,-0.67
2024-01-11T22:15:39.827Z,-0.74
2024-01-11T22:18:07.621Z,-0.71
2024-01-11T22:20:36.352Z,-0.72
2024-01-11T22:23:03.549Z,-0.68
2024-01-11T22:25:30.815Z,-0.66
2024-01-11T22:27:57.856Z,-0.68
2024-01-11T22:30:26.151Z,-0.75
2024-01-11T22:32:53.425Z,-0.76
2024-01-11T22:35:20.934Z,-0.81
2024-01-11T22:37:48.014Z,-0.84
2024-01-11T22:40:15.811Z,-0.90
2024-01-11T22:42:42.865Z,-0.92
2024-01-11T22:45:11.648Z,-0.93
2024-01-11T22:47:38.774Z,-0.94
2024-01-11T22:50:07.171Z,-0.94
2024-01-11T22:52:34.164Z,-0.92
2024-01-11T22:55:01.529Z,-0.92
2024-01-11T22:57:28.604Z,-0.90
2024-01-11T22:59:55.890Z,-0.97
2024-01-11T23:02:23.274Z,-0.92
2024-01-11T23:04:50.932Z,-0.87
2024-01-11T23:07:18.602Z,-0.87
2024-01-11T23:09:45.863Z,-0.85
2024-01-11T23:12:12.890Z,-0.84
2024-01-11T23:14:40.142Z,-0.81
2024-01-11T23:17:07.664Z,-0.76
2024-01-11T23:19:35.075Z,-0.76
2024-01-11T23:22:02.256Z,-0.71
2024-01-11T23:24:29.471Z,-0.70
2024-01-11T23:26:56.530Z,-0.72
2024-01-11T23:29:23.840Z,-0.69
2024-01-11T23:31:51.626Z,-0.68
2024-01-11T23:34:19.104Z,-0.66
2024-01-11T23:36:46.303Z,-0.65
2024-01-11T23:39:13.616Z,-0.62
2024-01-11T23:41:42.608Z,-0.61
2024-01-11T23:44:09.919Z,-0.61
2024-01-11T23:46:36.916Z,-0.57
2024-01-11T23:49:04.407Z,-0.55
2024-01-11T23:51:31.919Z,-0.55
2024-01-11T23:53:59.294Z,-0.54
2024-01-11T23:56:26.329Z,-0.52
2024-01-11T23:58:53.598Z,-0.51
